Time;durP1;ratioP1;P1;durP2;ratioP2;P2;SDS_P1;SDS_P2;PMS_P1;PMS_P2;Temp;Humidity;BMP_temperature;BMP_pressure;BME280_temperature;BME280_humidity;BME280_pressure;Samples;Min_cycle;Max_cycle;Signal;HPM_P1;HPM_P2
2022/10/11 00:00:17;;;;;;;4.30;1.70;;;;;;;4.04;100.00;102271.28;1029613;28;20395;-90
2022/10/11 00:00:48;;;;;;;6.25;2.00;;;;;;;4.09;100.00;102273.50;1022846;28;20310;-91
2022/10/11 00:01:20;;;;;;;16.52;1.85;;;;;;;4.10;100.00;102274.34;1033792;28;20304;-91
2022/10/11 00:01:51;;;;;;;3.90;2.10;;;;;;;4.10;100.00;102269.06;1025293;28;20365;-91
2022/10/11 00:02:24;;;;;;;3.42;1.65;;;;;;;4.17;100.00;102275.47;1031218;28;20408;-91
2022/10/11 00:02:57;;;;;;;1.77;1.67;;;;;;;4.18;100.00;102271.84;1023024;28;20329;-91
2022/10/11 00:03:29;;;;;;;7.57;1.92;;;;;;;4.13;100.00;102277.56;1023349;28;20380;-90
2022/10/11 00:04:00;;;;;;;3.10;1.58;;;;;;;4.15;100.00;102272.13;1029013;28;20306;-91
2022/10/11 00:04:32;;;;;;;8.43;1.88;;;;;;;4.15;100.00;102272.13;1027227;28;20293;-90
2022/10/11 00:05:04;;;;;;;40.90;3.90;;;;;;;4.14;100.00;102273.09;1031328;28;20301;-91
2022/10/11 00:05:35;;;;;;;12.35;2.10;;;;;;;4.08;100.00;102276.28;1021236;28;20306;-90
2022/10/11 00:06:09;;;;;;;4.07;2.17;;;;;;;4.12;100.00;102275.06;1026307;28;20531;-91
2022/10/11 00:06:42;;;;;;;10.98;2.17;;;;;;;4.08;100.00;102281.53;1028598;28;20306;-91
2022/10/11 00:07:13;;;;;;;2.65;1.70;;;;;;;4.04;100.00;102276.56;1029165;28;20311;-91
2022/10/11 00:07:45;;;;;;;3.90;1.60;;;;;;;4.09;100.00;102278.78;1024611;28;20667;-91
2022/10/11 00:08:17;;;;;;;3.17;1.85;;;;;;;4.11;100.00;102276.00;1022273;29;20299;-90
2022/10/11 00:08:48;;;;;;;8.18;2.17;;;;;;;4.11;100.00;102281.28;1026961;28;20739;-90
2022/10/11 00:09:20;;;;;;;4.88;1.73;;;;;;;4.11;100.00;102278.63;1037278;28;20833;-91
2022/10/11 00:09:51;;;;;;;4.50;2.30;;;;;;;4.10;100.00;102275.16;1023642;28;20397;-90
2022/10/11 00:10:23;;;;;;;4.38;2.15;;;;;;;4.17;100.00;102278.94;1025791;28;20428;-91
2022/10/11 00:10:56;;;;;;;8.93;1.60;;;;;;;4.14;100.00;102275.75;1027414;28;20302;-90
2022/10/11 00:11:28;;;;;;;4.47;1.50;;;;;;;4.14;100.00;102275.75;1027248;28;20400;-90
2022/10/11 00:11:59;;;;;;;5.82;2.65;;;;;;;4.13;100.00;102274.09;1019556;29;20303;-91
2022/10/11 00:12:32;;;;;;;4.18;2.00;;;;;;;4.15;100.00;102274.78;1027424;28;20400;-91
2022/10/11 00:13:03;;;;;;;4.65;1.65;;;;;;;4.16;100.00;102277.28;1023013;28;20397;-90
2022/10/11 00:13:35;;;;;;;7.28;1.95;;;;;;;4.15;100.00;102277.41;1027219;28;20858;-91
2022/10/11 00:14:07;;;;;;;5.72;1.80;;;;;;;4.14;100.00;102279.22;1027082;28;20374;-90
2022/10/11 00:14:39;;;;;;;8.05;2.58;;;;;;;4.14;100.00;102281.03;1019537;29;20888;-90
2022/10/11 00:15:13;;;;;;;9.27;2.65;;;;;;;4.13;100.00;102276.72;1022740;29;20381;-90
2022/10/11 00:15:45;;;;;;;7.30;3.03;;;;;;;4.14;100.00;102281.03;1023728;28;20345;-91
2022/10/11 00:16:16;;;;;;;7.50;2.40;;;;;;;4.17;100.00;102276.28;1025629;28;20298;-91
2022/10/11 00:16:48;;;;;;;11.52;2.58;;;;;;;4.18;100.00;102275.31;1023279;28;20754;-91
2022/10/11 00:17:20;;;;;;;4.85;1.95;;;;;;;4.13;100.00;102274.91;1026242;28;20317;-90
2022/10/11 00:17:51;;;;;;;6.85;2.70;;;;;;;4.13;100.00;102274.09;1027288;28;20776;-91
2022/10/11 00:18:23;;;;;;;3.15;1.88;;;;;;;4.12;100.00;102278.53;1026937;28;20302;-91
2022/10/11 00:18:55;;;;;;;4.97;2.35;;;;;;;4.12;100.00;102277.69;1019300;29;20362;-91
2022/10/11 00:19:26;;;;;;;7.55;2.60;;;;;;;4.12;100.00;102277.69;1020346;29;20343;-91
2022/10/11 00:19:58;;;;;;;4.50;2.20;;;;;;;4.08;100.00;102282.38;1024632;28;20327;-91
2022/10/11 00:20:30;;;;;;;8.63;2.33;;;;;;;4.07;100.00;102283.34;1023799;28;20315;-91
2022/10/11 00:21:04;;;;;;;3.70;2.33;;;;;;;4.07;100.00;102275.44;1026990;28;20676;-91
2022/10/11 00:21:36;;;;;;;7.75;2.63;;;;;;;4.06;100.00;102280.84;1029340;28;20309;-90
2022/10/11 00:22:08;;;;;;;28.75;3.47;;;;;;;3.94;100.00;102283.63;1026889;28;20392;-90
2022/10/11 00:22:40;;;;;;;6.22;2.28;;;;;;;3.98;100.00;102285.03;1026914;28;20680;-90
2022/10/11 00:23:11;;;;;;;5.82;2.20;;;;;;;4.02;100.00;102281.13;1023068;29;20415;-91
2022/10/11 00:23:43;;;;;;;5.70;2.50;;;;;;;4.06;100.00;102278.22;1028820;28;20321;-92
2022/10/11 00:24:15;;;;;;;5.63;2.20;;;;;;;4.08;100.00;102276.28;1031040;28;20305;-91
2022/10/11 00:24:47;;;;;;;5.45;2.30;;;;;;;4.02;100.00;102281.13;1027461;28;20313;-91
2022/10/11 00:25:18;;;;;;;6.03;2.00;;;;;;;4.01;100.00;102286.53;1027145;28;20346;-90
2022/10/11 00:26:00;;;;;;;3.40;1.77;;;;;;;4.04;100.00;102289.75;1028943;28;20305;-91
2022/10/11 00:26:33;;;;;;;7.07;2.72;;;;;;;4.10;100.00;102282.25;1027095;28;20328;-91
2022/10/11 00:27:04;;;;;;;4.07;2.40;;;;;;;4.11;100.00;102281.28;1025837;28;20329;-91
2022/10/11 00:27:36;;;;;;;5.38;2.80;;;;;;;4.10;100.00;102282.25;1032647;28;20305;-91
2022/10/11 00:28:08;;;;;;;5.38;2.17;;;;;;;4.02;100.00;102286.41;1024714;28;20298;-91
2022/10/11 00:28:40;;;;;;;3.50;1.90;;;;;;;4.00;100.00;102283.06;1028566;28;20301;-91
2022/10/11 00:29:11;;;;;;;4.50;2.33;;;;;;;3.99;100.00;102284.06;1030658;28;20313;-91
2022/10/11 00:29:43;;;;;;;20.27;4.18;;;;;;;3.99;100.00;102283.22;1029580;28;20719;-91
2022/10/11 00:30:15;;;;;;;5.25;2.10;;;;;;;3.97;100.00;102286.00;1024774;28;20402;-91
2022/10/11 00:30:46;;;;;;;4.07;2.08;;;;;;;4.02;100.00;102282.94;1035920;28;20370;-91
2022/10/11 00:31:18;;;;;;;6.43;2.00;;;;;;;4.00;100.00;102279.59;1028312;28;20388;-91
2022/10/11 00:31:49;;;;;;;9.77;2.20;;;;;;;4.02;100.00;102281.13;1025879;28;20333;-91
2022/10/11 00:32:21;;;;;;;9.13;3.08;;;;;;;4.10;100.00;102284.88;1024210;28;20318;-91
2022/10/11 00:32:53;;;;;;;7.20;2.35;;;;;;;4.10;100.00;102279.59;1022253;29;20394;-91
2022/10/11 00:33:24;;;;;;;7.10;2.67;;;;;;;4.11;100.00;102276.00;1027873;28;20342;-91
2022/10/11 00:33:56;;;;;;;6.05;2.78;;;;;;;4.06;100.00;102283.50;1028139;28;20743;-91
2022/10/11 00:34:27;;;;;;;12.07;3.65;;;;;;;4.03;100.00;102287.25;1025771;28;20297;-91
2022/10/11 00:35:05;;;;;;;4.28;2.28;;;;;;;4.04;100.00;102281.81;1030441;28;20395;-91
2022/10/11 00:35:40;;;;;;;8.38;2.53;;;;;;;4.02;100.00;102278.50;1020240;29;20311;-91
2022/10/11 00:36:16;;;;;;;10.88;2.00;;;;;;;4.01;100.00;102281.28;1027658;28;20839;-91
2022/10/11 00:36:47;;;;;;;6.15;2.30;;;;;;;4.01;100.00;102281.28;1031259;28;20396;-91
2022/10/11 00:37:19;;;;;;;5.35;2.50;;;;;;;4.00;100.00;102274.34;1025369;28;20392;-91
2022/10/11 00:37:50;;;;;;;5.25;2.00;;;;;;;3.97;100.00;102280.72;1027622;28;20873;-90
2022/10/11 00:38:22;;;;;;;16.80;2.67;;;;;;;3.99;100.00;102273.50;1028344;28;20424;-91
2022/10/11 00:38:53;;;;;;;6.70;2.20;;;;;;;3.96;100.00;102280.88;1023991;28;20369;-91
2022/10/11 00:39:25;;;;;;;9.50;2.40;;;;;;;3.94;100.00;102286.28;1021878;28;20382;-91
2022/10/11 00:39:56;;;;;;;9.63;1.70;;;;;;;3.96;100.00;102279.06;1025084;28;20306;-90
2022/10/11 00:40:28;;;;;;;2.67;1.75;;;;;;;3.97;100.00;102286.00;1031685;28;20317;-91
2022/10/11 00:41:00;;;;;;;7.38;2.35;;;;;;;3.96;100.00;102284.31;1024343;28;20673;-91
2022/10/11 00:41:31;;;;;;;5.97;2.05;;;;;;;3.93;100.00;102284.59;1019637;29;20348;-91
2022/10/11 00:42:03;;;;;;;4.60;1.80;;;;;;;3.96;100.00;102286.13;1027617;28;20464;-91
2022/10/11 00:42:35;;;;;;;2.53;1.52;;;;;;;3.92;100.00;102284.75;1027743;28;20357;-91
2022/10/11 00:43:20;;;;;;;3.25;1.80;;;;;;;3.89;100.00;102283.22;1026261;28;20294;-91
2022/10/11 00:44:13;;;;;;;17.80;2.30;;;;;;;3.92;100.00;102277.66;1024336;28;20381;-91
2022/10/11 00:44:45;;;;;;;6.80;1.67;;;;;;;3.99;100.00;102283.22;1028326;28;20856;-90
2022/10/11 00:45:26;;;;;;;7.95;2.05;;;;;;;3.94;100.00;102275.72;1035090;28;20304;-91
2022/10/11 00:45:57;;;;;;;8.45;2.00;;;;;;;3.94;100.00;102280.16;1037691;28;20312;-91
2022/10/11 00:46:30;;;;;;;4.50;2.28;;;;;;;3.97;100.00;102279.88;1032440;28;20038;-91
2022/10/11 00:47:08;;;;;;;2.50;1.77;;;;;;;4.04;100.00;102283.63;1028213;28;20294;-91
2022/10/11 00:47:39;;;;;;;6.72;2.53;;;;;;;4.02;100.00;102282.94;1028646;28;20307;-91
2022/10/11 00:48:16;;;;;;;4.88;1.80;;;;;;;3.99;100.00;102284.06;1024979;28;20380;-90
2022/10/11 00:48:52;;;;;;;19.80;2.67;;;;;;;3.99;100.00;102281.41;1031841;28;20703;-91
2022/10/11 00:49:33;;;;;;;2.03;1.13;;;;;;;3.97;100.00;102280.72;1035560;28;20668;-91
2022/10/11 00:50:08;;;;;;;15.02;2.67;;;;;;;3.92;100.00;102287.38;1035935;28;20398;-92
2022/10/11 00:50:40;;;;;;;5.20;1.60;;;;;;;3.97;100.00;102285.16;1023796;28;20338;-91
2022/10/11 00:51:37;;;;;;;15.48;1.50;;;;;;;3.94;100.00;102281.00;1026425;28;20302;-91
2022/10/11 00:52:30;;;;;;;10.90;1.60;;;;;;;3.99;100.00;102293.75;1024121;28;20313;-91
2022/10/11 00:53:06;;;;;;;23.15;2.95;;;;;;;3.98;100.00;102292.09;1027608;28;20348;-91
2022/10/11 00:53:38;;;;;;;5.32;2.00;;;;;;;3.97;100.00;102285.16;1029890;28;20815;-91
2022/10/11 00:54:12;;;;;;;4.60;1.40;;;;;;;3.98;100.00;102287.66;1029466;28;20345;-91
2022/10/11 00:54:44;;;;;;;7.80;2.42;;;;;;;3.94;100.00;102290.72;1023839;29;20306;-90
2022/10/11 00:55:17;;;;;;;2.80;1.52;;;;;;;3.84;100.00;102295.97;1027859;28;20355;-91
2022/10/11 00:55:53;;;;;;;4.15;2.58;;;;;;;3.78;100.00;102293.03;1025695;28;20429;-92
2022/10/11 00:56:37;;;;;;;4.57;2.10;;;;;;;3.82;100.00;102282.06;1028121;28;20345;-92
2022/10/11 00:57:13;;;;;;;3.60;1.70;;;;;;;3.79;100.00;102292.91;1027786;28;20805;-91
2022/10/11 00:57:47;;;;;;;1.50;1.40;;;;;;;3.72;100.00;102287.34;1030418;28;20337;-91
2022/10/11 00:58:20;;;;;;;4.07;1.60;;;;;;;3.78;100.00;102291.22;1030059;28;20357;-90
2022/10/11 00:58:52;;;;;;;6.15;1.48;;;;;;;3.74;100.00;102295.09;1020015;29;20288;-91
2022/10/11 00:59:27;;;;;;;6.25;1.58;;;;;;;3.70;100.00;102301.63;1024068;29;20643;-91
2022/10/11 00:59:59;;;;;;;3.15;1.73;;;;;;;3.73;100.00;102290.81;1023070;28;20350;-91
2022/10/11 01:00:31;;;;;;;4.00;1.73;;;;;;;3.70;100.00;102294.56;1028217;28;20313;-91
2022/10/11 01:01:02;;;;;;;4.32;1.58;;;;;;;3.72;100.00;102297.88;1024196;28;20683;-91
2022/10/11 01:01:34;;;;;;;2.10;1.63;;;;;;;3.73;100.00;102293.44;1029708;28;20382;-91
2022/10/11 01:02:09;;;;;;;4.32;1.95;;;;;;;3.69;100.00;102284.16;1032130;28;21996;-91
2022/10/11 01:02:41;;;;;;;13.68;1.70;;;;;;;3.75;100.00;102295.94;1030375;28;20393;-91
2022/10/11 01:03:15;;;;;;;7.38;1.23;;;;;;;3.69;100.00;102298.16;1018628;29;20292;-91
2022/10/11 01:03:46;;;;;;;2.35;1.25;;;;;;;3.67;100.00;102299.25;1023878;28;20306;-91
2022/10/11 01:04:18;;;;;;;1.77;1.17;;;;;;;3.64;100.00;102294.25;1020219;28;20326;-91
2022/10/11 01:04:49;;;;;;;4.78;1.30;;;;;;;3.60;100.00;102300.78;1030381;28;20789;-91
2022/10/11 01:05:41;;;;;;;3.33;1.05;;;;;;;3.56;100.00;102304.63;1035281;28;20463;-91
2022/10/11 01:06:13;;;;;;;1.08;1.08;;;;;;;3.58;100.00;102305.34;1031937;28;20361;-92
2022/10/11 01:06:44;;;;;;;2.13;1.05;;;;;;;3.59;100.00;102302.56;1021946;29;20314;-91
2022/10/11 01:07:18;;;;;;;4.18;0.95;;;;;;;3.63;100.00;102300.50;1025178;28;20740;-91
2022/10/11 01:07:49;;;;;;;6.00;1.20;;;;;;;3.52;100.00;102309.31;1019315;29;20377;-92
2022/10/11 01:08:22;;;;;;;2.47;1.02;;;;;;;3.57;100.00;102306.31;1027756;28;20313;-91
2022/10/11 01:08:53;;;;;;;1.92;1.20;;;;;;;3.53;100.00;102300.47;1032036;28;20325;-91
2022/10/11 01:09:25;;;;;;;2.47;1.20;;;;;;;3.50;100.00;102307.81;1026786;28;20740;-91
2022/10/11 01:09:57;;;;;;;1.70;1.40;;;;;;;3.48;100.00;102304.47;1023475;28;20385;-91
2022/10/11 01:10:28;;;;;;;3.05;1.60;;;;;;;3.52;100.00;102300.59;1020181;29;20307;-91
2022/10/11 01:11:00;;;;;;;5.57;1.60;;;;;;;3.52;100.00;102303.22;1024043;29;20307;-91
2022/10/11 01:11:34;;;;;;;6.13;2.00;;;;;;;3.52;100.00;102300.59;1026934;28;20392;-91
2022/10/11 01:12:13;;;;;;;3.58;1.40;;;;;;;3.55;100.00;102311.69;1028056;28;20376;-92
2022/10/11 01:13:06;;;;;;;3.72;1.92;;;;;;;3.41;100.00;102302.38;1027785;28;20321;-92
2022/10/11 01:13:56;;;;;;;2.08;1.50;;;;;;;3.43;100.00;102299.59;1027942;28;20310;-91
2022/10/11 01:14:42;;;;;;;3.85;1.80;;;;;;;3.45;100.00;102304.75;1028943;28;20883;-91
2022/10/11 01:15:21;;;;;;;3.63;1.30;;;;;;;3.47;100.00;102306.28;1029346;28;20736;-91
2022/10/11 01:16:16;;;;;;;2.03;1.30;;;;;;;3.46;100.00;102306.41;1025136;28;20450;-91
2022/10/11 01:17:08;;;;;;;5.47;1.00;;;;;;;3.48;100.00;102309.72;1022704;28;20303;-91
2022/10/11 01:18:12;;;;;;;16.58;2.47;;;;;;;3.54;100.00;102311.81;1032014;28;20422;-91
2022/10/11 01:18:50;;;;;;;8.50;1.20;;;;;;;3.53;100.00;102307.53;1026818;28;20337;-91
2022/10/11 01:19:42;;;;;;;8.95;1.20;;;;;;;3.39;100.00;102312.22;1028465;28;20306;-91
2022/10/11 01:20:31;;;;;;;6.20;1.13;;;;;;;3.35;100.00;102310.81;1030484;28;20380;-91
2022/10/11 01:21:11;;;;;;;22.27;2.20;;;;;;;3.36;100.00;102307.22;1024816;28;20462;-91
2022/10/11 01:21:53;;;;;;;5.85;1.25;;;;;;;3.35;100.00;102310.81;1026082;28;20385;-91
2022/10/11 01:22:40;;;;;;;8.60;2.28;;;;;;;3.33;100.00;102315.38;1022054;29;20051;-91
2022/10/11 01:23:55;;;;;;;5.03;1.00;;;;;;;3.28;100.00;102309.66;1019846;29;20462;-91
2022/10/11 01:25:04;;;;;;;2.40;1.00;;;;;;;3.25;100.00;102317.00;1019392;29;20450;-91
2022/10/11 01:26:06;;;;;;;1.02;0.85;;;;;;;3.27;100.00;102312.41;1024165;28;20310;-91
2022/10/11 01:27:10;;;;;;;1.33;0.85;;;;;;;3.26;100.00;102313.38;1034330;28;20340;-91
2022/10/11 01:28:02;;;;;;;3.40;1.30;;;;;;;3.28;100.00;102309.66;1015943;29;20344;-91
2022/10/11 01:28:57;;;;;;;3.05;1.42;;;;;;;3.32;100.00;102305.81;1031658;28;20344;-91
2022/10/11 01:29:35;;;;;;;2.45;1.20;;;;;;;3.35;100.00;102305.53;1029646;28;20542;-91
2022/10/11 01:30:26;;;;;;;2.33;1.40;;;;;;;3.34;100.00;102301.25;1025346;28;20366;-91
2022/10/11 01:31:05;;;;;;;2.67;1.30;;;;;;;3.33;100.00;102299.59;1023288;28;20310;-91
2022/10/11 01:31:48;;;;;;;3.08;1.33;;;;;;;3.34;100.00;102309.16;1019599;29;20067;-91
2022/10/11 01:32:24;;;;;;;2.00;1.40;;;;;;;3.36;100.00;102307.22;1028158;28;20310;-91
2022/10/11 01:33:04;;;;;;;15.23;3.55;;;;;;;3.41;100.00;102320.81;1027334;28;20303;-91
2022/10/11 01:33:40;;;;;;;5.25;2.00;;;;;;;3.37;100.00;102308.88;1021870;29;20382;-91
2022/10/11 01:34:54;;;;;;;2.88;1.92;;;;;;;3.52;100.00;102316.41;1025842;28;20051;-91
2022/10/11 01:36:02;;;;;;;5.75;1.80;;;;;;;3.42;100.00;102316.38;1013136;29;20712;-91
2022/10/11 01:36:44;;;;;;;13.85;1.60;;;;;;;3.47;100.00;102316.81;1027881;28;21044;-91
2022/10/11 01:37:23;;;;;;;11.48;3.20;;;;;;;3.40;100.00;102318.31;1028354;28;20359;-91
2022/10/11 01:38:02;;;;;;;4.50;1.25;;;;;;;3.40;100.00;102319.16;1025360;28;20067;-91
2022/10/11 01:38:37;;;;;;;1.58;1.17;;;;;;;3.38;100.00;102315.81;1025967;28;20700;-90
2022/10/11 01:39:12;;;;;;;14.27;1.48;;;;;;;3.30;100.00;102313.03;1027790;28;20314;-91
2022/10/11 01:40:36;;;;;;;6.18;1.20;;;;;;;3.30;100.00;102320.91;1027806;28;20402;-91
2022/10/11 01:41:14;;;;;;;4.90;2.05;;;;;;;3.25;100.00;102320.47;1025867;28;20820;-91
2022/10/11 01:41:49;;;;;;;13.00;1.58;;;;;;;3.22;100.00;102320.72;1029581;28;20847;-91
2022/10/11 01:42:21;;;;;;;2.38;1.42;;;;;;;3.29;100.00;102321.88;1023940;28;20308;-91
2022/10/11 01:42:54;;;;;;;1.70;1.00;;;;;;;3.30;100.00;102318.28;1025984;28;20309;-91
2022/10/11 01:43:26;;;;;;;3.47;1.35;;;;;;;3.31;100.00;102319.13;1022301;29;20314;-91
2022/10/11 01:43:59;;;;;;;5.00;1.67;;;;;;;3.30;100.00;102326.19;1023998;29;20319;-91
2022/10/11 01:44:33;;;;;;;2.60;1.20;;;;;;;3.31;100.00;102325.22;1027583;28;20401;-91
2022/10/11 01:45:07;;;;;;;1.48;1.38;;;;;;;3.28;100.00;102322.81;1023948;28;20327;-91
2022/10/11 01:45:40;;;;;;;2.38;1.35;;;;;;;3.28;100.00;102316.72;1023299;29;20306;-91
2022/10/11 01:46:12;;;;;;;2.13;1.55;;;;;;;3.31;100.00;102324.38;1028853;28;20397;-91
2022/10/11 01:46:43;;;;;;;1.42;1.27;;;;;;;3.32;100.00;102321.63;1031836;28;20316;-91
2022/10/11 01:47:19;;;;;;;2.05;1.55;;;;;;;3.31;100.00;102327.03;1029201;28;20317;-91
2022/10/11 01:48:04;;;;;;;2.00;1.80;;;;;;;3.30;100.00;102326.19;1025075;28;20378;-91
2022/10/11 01:48:49;;;;;;;6.38;1.73;;;;;;;3.28;100.00;102317.56;1027720;28;20309;-92
2022/10/11 01:49:21;;;;;;;8.75;2.05;;;;;;;3.29;100.00;102324.53;1027803;28;20321;-91
2022/10/11 01:49:58;;;;;;;3.45;1.48;;;;;;;3.26;100.00;102327.38;1025615;28;20317;-91
2022/10/11 01:50:39;;;;;;;3.25;1.63;;;;;;;3.28;100.00;102320.19;1032032;28;20387;-90
2022/10/11 01:51:10;;;;;;;2.97;1.70;;;;;;;3.25;100.00;102325.72;1023921;28;20317;-91
2022/10/11 01:51:47;;;;;;;1.52;1.30;;;;;;;3.21;100.00;102324.31;1029453;28;20054;-91
2022/10/11 01:52:20;;;;;;;4.25;1.50;;;;;;;3.18;100.00;102321.97;1030345;28;20376;-91
2022/10/11 01:52:51;;;;;;;3.05;2.00;;;;;;;3.21;100.00;102323.50;1021507;29;20683;-91
2022/10/11 01:53:44;;;;;;;1.67;1.58;;;;;;;3.14;100.00;102333.72;1027828;28;20328;-91
2022/10/11 01:54:20;;;;;;;7.32;1.27;;;;;;;3.22;100.00;102328.63;1030177;28;20788;-91
2022/10/11 01:55:03;;;;;;;18.40;1.90;;;;;;;3.25;100.00;102331.00;1033968;28;20301;-90
2022/10/11 01:55:54;;;;;;;9.55;1.30;;;;;;;3.14;100.00;102325.81;1030936;28;20400;-91
2022/10/11 01:56:43;;;;;;;2.10;1.15;;;;;;;3.13;100.00;102334.69;1028086;28;20757;-91
2022/10/11 01:57:21;;;;;;;6.65;1.30;;;;;;;3.13;100.00;102332.06;1030583;28;20305;-91
2022/10/11 01:57:53;;;;;;;4.28;1.05;;;;;;;3.10;100.00;102332.31;1023610;28;20365;-91
2022/10/11 01:58:47;;;;;;;8.18;1.63;;;;;;;3.14;100.00;102338.16;1022430;29;20361;-91
2022/10/11 01:59:38;;;;;;;1.25;1.15;;;;;;;3.05;100.00;102335.34;1024160;28;20298;-91
2022/10/11 02:00:19;;;;;;;2.75;1.55;;;;;;;3.10;100.00;102332.31;1027439;28;20442;-91
2022/10/11 02:00:59;;;;;;;4.10;1.50;;;;;;;3.10;100.00;102332.31;1032430;28;20155;-92
2022/10/11 02:01:49;;;;;;;3.83;1.60;;;;;;;3.09;100.00;102334.13;1026452;28;20779;-90
2022/10/11 02:02:32;;;;;;;4.82;1.60;;;;;;;3.13;100.00;102336.47;1023936;28;20852;-91
2022/10/11 02:03:16;;;;;;;2.25;0.90;;;;;;;3.15;100.00;102330.13;1028253;28;20307;-91
2022/10/11 02:03:55;;;;;;;5.85;1.10;;;;;;;3.07;100.00;102333.41;1029883;28;20399;-91
2022/10/11 02:04:41;;;;;;;1.60;1.25;;;;;;;3.08;100.00;102336.88;1022956;29;20382;-91
2022/10/11 02:05:19;;;;;;;3.33;1.35;;;;;;;3.09;100.00;102338.53;1027686;28;20301;-91
2022/10/11 02:05:55;;;;;;;1.98;1.10;;;;;;;3.12;100.00;102329.56;1024378;28;20311;-92
2022/10/11 02:06:36;;;;;;;2.60;1.30;;;;;;;3.10;100.00;102332.31;1028006;28;20677;-92
2022/10/11 02:07:28;;;;;;;3.53;1.50;;;;;;;3.09;100.00;102336.75;1029078;28;20337;-90
2022/10/11 02:08:22;;;;;;;4.10;1.90;;;;;;;3.06;100.00;102341.44;1028534;28;20353;-91
2022/10/11 02:08:59;;;;;;;8.60;1.40;;;;;;;3.07;100.00;102345.75;1027193;28;20299;-92
2022/10/11 02:09:49;;;;;;;2.95;1.38;;;;;;;3.03;100.00;102337.28;1024173;28;20385;-91
2022/10/11 02:10:26;;;;;;;4.93;1.25;;;;;;;3.05;100.00;102337.97;1025740;28;20349;-91
2022/10/11 02:11:25;;;;;;;9.25;1.83;;;;;;;3.06;100.00;102346.72;1031033;28;20404;-91
2022/10/11 02:12:03;;;;;;;6.65;1.65;;;;;;;2.93;100.00;102340.78;1027111;28;20360;-91
2022/10/11 02:12:39;;;;;;;3.15;1.80;;;;;;;2.92;100.00;102341.75;1028750;28;20306;-92
2022/10/11 02:13:40;;;;;;;5.65;1.25;;;;;;;2.95;100.00;102338.88;1035107;28;20309;-91
2022/10/11 02:14:15;;;;;;;3.40;1.05;;;;;;;2.99;100.00;102340.28;1031560;28;20329;-91
2022/10/11 02:14:49;;;;;;;1.13;1.02;;;;;;;2.98;100.00;102344.69;1035666;28;20093;-92
2022/10/11 02:15:21;;;;;;;3.72;1.33;;;;;;;2.90;100.00;102344.53;1032216;28;20309;-91
2022/10/11 02:15:54;;;;;;;6.93;1.92;;;;;;;2.91;100.00;102338.28;1030408;28;20341;-91
2022/10/11 02:16:50;;;;;;;2.22;1.10;;;;;;;2.94;100.00;102327.50;1025522;28;20398;-91
2022/10/11 02:17:26;;;;;;;5.50;2.75;;;;;;;2.91;100.00;102342.72;1020040;28;20349;-91
2022/10/11 02:18:00;;;;;;;1.70;1.50;;;;;;;2.95;100.00;102341.50;1025505;28;20337;-91
2022/10/11 02:18:36;;;;;;;3.17;1.33;;;;;;;2.89;100.00;102336.75;1023724;28;20341;-91
2022/10/11 02:19:08;;;;;;;5.60;1.70;;;;;;;2.92;100.00;102345.22;1020523;28;20311;-91
2022/10/11 02:19:45;;;;;;;4.38;2.35;;;;;;;2.90;100.00;102341.06;1029053;28;20392;-91
2022/10/11 02:20:23;;;;;;;3.55;1.70;;;;;;;2.86;100.00;102339.66;1033015;28;20305;-91
2022/10/11 02:20:59;;;;;;;2.92;1.80;;;;;;;2.94;100.00;102342.47;1028657;28;20862;-92
2022/10/11 02:21:33;;;;;;;5.18;1.65;;;;;;;2.93;100.00;102340.78;1026170;28;20373;-91
2022/10/11 02:22:07;;;;;;;10.18;2.08;;;;;;;3.00;100.00;102347.19;1027557;28;20365;-91
2022/10/11 02:22:42;;;;;;;4.03;1.60;;;;;;;2.97;100.00;102343.03;1029189;28;20408;-91
2022/10/11 02:23:22;;;;;;;4.68;1.77;;;;;;;2.92;100.00;102347.03;1023871;28;20310;-91
2022/10/11 02:24:02;;;;;;;3.70;1.83;;;;;;;2.91;100.00;102343.56;1027584;28;20385;-91
2022/10/11 02:24:35;;;;;;;3.00;1.80;;;;;;;2.92;100.00;102344.38;1031866;28;20050;-91
2022/10/11 02:25:09;;;;;;;3.88;2.30;;;;;;;2.93;100.00;102346.06;1035550;28;20490;-91
2022/10/11 02:25:43;;;;;;;4.18;2.70;;;;;;;2.87;100.00;102347.41;1031784;28;20839;-91
2022/10/11 02:26:15;;;;;;;8.63;1.65;;;;;;;2.98;100.00;102347.34;1028390;28;20310;-91
2022/10/11 02:26:53;;;;;;;1.33;1.13;;;;;;;3.01;100.00;102343.59;1029620;28;20308;-92
2022/10/11 02:27:29;;;;;;;4.15;1.88;;;;;;;2.99;100.00;102345.53;1019934;29;20308;-91
2022/10/11 02:28:04;;;;;;;2.03;1.85;;;;;;;2.93;100.00;102343.44;1025741;28;20479;-91
2022/10/11 02:28:38;;;;;;;3.30;1.45;;;;;;;2.92;100.00;102345.22;1026380;28;20376;-91
2022/10/11 02:29:11;;;;;;;5.47;1.35;;;;;;;2.90;100.00;102347.16;1028611;28;20317;-91
2022/10/11 02:29:43;;;;;;;1.38;1.20;;;;;;;2.89;100.00;102339.38;1029080;28;20396;-91
2022/10/11 02:30:15;;;;;;;6.75;1.85;;;;;;;2.92;100.00;102345.22;1033035;28;20813;-92
2022/10/11 02:30:48;;;;;;;1.67;1.50;;;;;;;2.94;100.00;102342.47;1031696;28;20301;-91
2022/10/11 02:31:21;;;;;;;5.00;2.38;;;;;;;2.94;100.00;102340.66;1027573;28;20334;-92
2022/10/11 02:31:54;;;;;;;4.85;1.92;;;;;;;2.97;100.00;102342.19;1028871;28;20339;-91
2022/10/11 02:32:26;;;;;;;4.38;1.42;;;;;;;2.98;100.00;102343.88;1025762;28;20373;-91
2022/10/11 02:32:58;;;;;;;8.48;1.63;;;;;;;2.92;100.00;102349.66;1026063;28;20298;-91
2022/10/11 02:33:37;;;;;;;3.92;1.70;;;;;;;2.96;100.00;102340.53;1027939;28;20393;-91
2022/10/11 02:34:16;;;;;;;3.47;1.85;;;;;;;2.96;100.00;102343.16;1025013;28;20418;-91
2022/10/11 02:34:53;;;;;;;7.57;1.58;;;;;;;2.95;100.00;102338.88;1020055;29;20463;-91
2022/10/11 02:35:28;;;;;;;2.53;1.77;;;;;;;2.96;100.00;102343.16;1019418;29;20353;-91
2022/10/11 02:36:06;;;;;;;9.70;1.77;;;;;;;2.96;100.00;102345.78;1026259;28;20724;-91
2022/10/11 02:37:03;;;;;;;2.50;2.00;;;;;;;2.95;100.00;102339.69;1028231;28;20360;-91
2022/10/11 02:37:58;;;;;;;3.00;1.63;;;;;;;2.97;100.00;102344.84;1032209;28;20321;-91
2022/10/11 02:38:44;;;;;;;6.10;1.70;;;;;;;2.88;100.00;102343.81;1028764;28;20302;-92
2022/10/11 02:39:40;;;;;;;4.43;1.40;;;;;;;2.86;100.00;102345.75;1035773;28;20807;-92
2022/10/11 02:40:24;;;;;;;2.80;1.65;;;;;;;2.78;100.00;102343.78;1031100;28;20672;-91
2022/10/11 02:41:02;;;;;;;4.40;1.58;;;;;;;2.84;100.00;102345.03;1031375;28;20314;-91
2022/10/11 02:41:38;;;;;;;6.18;2.00;;;;;;;2.91;100.00;102350.63;1023562;28;20824;-91
2022/10/11 02:42:14;;;;;;;8.10;2.03;;;;;;;2.91;100.00;102355.88;1023809;29;20393;-92
2022/10/11 02:43:02;;;;;;;3.08;1.95;;;;;;;2.86;100.00;102350.19;1025478;28;20316;-91
2022/10/11 02:43:53;;;;;;;6.60;2.58;;;;;;;2.89;100.00;102347.28;1027329;28;20310;-91
2022/10/11 02:44:36;;;;;;;4.22;1.42;;;;;;;2.84;100.00;102352.94;1027832;28;20393;-92
2022/10/11 02:45:32;;;;;;;5.05;2.05;;;;;;;2.85;100.00;102348.50;1026466;28;20309;-91
2022/10/11 02:46:06;;;;;;;3.65;1.90;;;;;;;2.84;100.00;102349.47;1022045;28;20327;-91
2022/10/11 02:46:39;;;;;;;11.48;2.35;;;;;;;2.86;100.00;102350.19;1023398;29;20321;-91
2022/10/11 02:47:11;;;;;;;2.90;1.75;;;;;;;2.87;100.00;102351.84;1025375;28;20389;-91
2022/10/11 02:47:43;;;;;;;3.30;1.70;;;;;;;2.91;100.00;102353.25;1022613;28;20364;-91
2022/10/11 02:48:15;;;;;;;15.95;3.65;;;;;;;2.91;100.00;102355.88;1024877;28;20678;-91
2022/10/11 02:48:47;;;;;;;2.65;1.65;;;;;;;2.87;100.00;102342.16;1035469;28;20865;-91
2022/10/11 02:49:19;;;;;;;3.78;1.60;;;;;;;2.86;100.00;102344.91;1027592;28;20306;-91
2022/10/11 02:49:51;;;;;;;4.03;1.70;;;;;;;2.88;100.00;102345.63;1023709;28;20307;-92
2022/10/11 02:50:23;;;;;;;5.90;1.98;;;;;;;2.91;100.00;102348.00;1025242;28;20381;-92
2022/10/11 02:50:58;;;;;;;7.45;5.60;;;;;;;2.92;100.00;102347.03;1031788;28;20320;-92
2022/10/11 02:51:30;;;;;;;3.33;1.63;;;;;;;2.86;100.00;102339.66;1025818;28;20888;-91
2022/10/11 02:52:04;;;;;;;3.70;1.77;;;;;;;2.84;100.00;102341.59;1027320;28;20298;-91
2022/10/11 02:52:35;;;;;;;2.60;1.48;;;;;;;2.87;100.00;102341.31;1034286;28;20308;-91
2022/10/11 02:53:07;;;;;;;9.48;2.25;;;;;;;2.90;100.00;102348.94;1027429;28;20298;-91
2022/10/11 02:53:39;;;;;;;4.78;1.80;;;;;;;2.87;100.00;102336.06;1025455;28;20397;-91
2022/10/11 02:54:10;;;;;;;6.88;1.80;;;;;;;2.86;100.00;102345.75;1027284;28;20330;-91